createdAt,value
2022-11-01T00:00:32.377Z,23
2022-11-01T00:01:32.362Z,19
2022-11-01T00:02:32.377Z,18
2022-11-01T00:03:32.377Z,19
2022-11-01T00:04:32.377Z,15
2022-11-01T00:05:32.364Z,15
2022-11-01T00:06:32.378Z,22
2022-11-01T00:07:32.378Z,22
2022-11-01T00:08:32.378Z,22
2022-11-01T00:09:32.365Z,16
2022-11-01T00:10:32.379Z,17
2022-11-01T00:11:32.380Z,20
2022-11-01T00:12:32.380Z,17
2022-11-01T00:13:32.366Z,24
2022-11-01T00:14:32.380Z,23
2022-11-01T00:15:32.381Z,27
2022-11-01T00:16:32.366Z,28
2022-11-01T00:17:32.367Z,21
2022-11-01T00:18:32.382Z,19
2022-11-01T00:19:32.382Z,16
2022-11-01T00:20:32.368Z,18
2022-11-01T00:21:32.368Z,19
2022-11-01T00:22:32.382Z,20
2022-11-01T00:23:32.383Z,23
2022-11-01T00:24:32.369Z,20
2022-11-01T00:25:32.383Z,20
2022-11-01T00:26:32.384Z,13
2022-11-01T00:27:32.384Z,18
2022-11-01T00:28:32.370Z,16
2022-11-01T00:29:32.385Z,16
2022-11-01T00:30:32.385Z,13
2022-11-01T00:31:35.377Z,16
2022-11-01T00:32:32.371Z,18
2022-11-01T00:33:32.385Z,20
2022-11-01T00:34:32.386Z,15
2022-11-01T00:35:32.386Z,13
2022-11-01T00:36:32.372Z,19
2022-11-01T00:37:32.387Z,17
2022-11-01T00:38:32.388Z,20
2022-11-01T00:39:32.373Z,17
2022-11-01T00:40:32.373Z,16
2022-11-01T00:41:32.388Z,16
2022-11-01T00:42:32.389Z,17
2022-11-01T00:43:32.374Z,16
2022-11-01T00:44:32.374Z,17
2022-11-01T00:45:32.389Z,12
2022-11-01T00:46:32.437Z,13
2022-11-01T00:47:32.375Z,19
2022-11-01T00:48:32.390Z,18
2022-11-01T00:49:32.390Z,17
2022-11-01T00:50:32.390Z,16
2022-11-01T00:51:32.376Z,20
2022-11-01T00:52:32.391Z,18
2022-11-01T00:53:32.457Z,17
2022-11-01T00:54:32.391Z,19
2022-11-01T00:55:32.377Z,23
2022-11-01T00:56:32.392Z,19
2022-11-01T00:57:32.393Z,23
2022-11-01T00:58:32.392Z,23
2022-11-01T00:59:32.378Z,23
2022-11-01T01:00:32.393Z,24
2022-11-01T01:01:32.394Z,20
2022-11-01T01:02:32.379Z,19
2022-11-01T01:03:32.379Z,24
2022-11-01T01:04:32.394Z,24
2022-11-01T01:05:32.395Z,26
2022-11-01T01:06:32.380Z,23
2022-11-01T01:07:32.380Z,19
2022-11-01T01:08:32.395Z,21
2022-11-01T01:09:32.396Z,23
2022-11-01T01:10:32.381Z,27
2022-11-01T01:11:32.396Z,23
2022-11-01T01:12:32.396Z,22
2022-11-01T01:13:32.396Z,26
2022-11-01T01:14:32.382Z,26
2022-11-01T01:15:32.397Z,24
2022-11-01T01:16:32.397Z,23
2022-11-01T01:17:32.397Z,26
2022-11-01T01:18:32.384Z,23
2022-11-01T01:19:32.398Z,19
2022-11-01T01:20:32.399Z,22
2022-11-01T01:21:32.398Z,21
2022-11-01T01:22:32.385Z,22
2022-11-01T01:23:32.399Z,24
2022-11-01T01:24:32.400Z,24
2022-11-01T01:25:32.385Z,26
2022-11-01T01:26:32.386Z,28
2022-11-01T01:27:32.400Z,24
2022-11-01T01:28:32.401Z,24
2022-11-01T01:29:32.386Z,24
2022-11-01T01:30:32.387Z,24
2022-11-01T01:31:32.401Z,18
2022-11-01T01:32:32.402Z,15
2022-11-01T01:33:32.387Z,19
2022-11-01T01:34:32.402Z,18
2022-11-01T01:35:32.402Z,20
2022-11-01T01:36:32.402Z,16
2022-11-01T01:37:32.389Z,16
2022-11-01T01:38:32.403Z,15
2022-11-01T01:39:32.403Z,19
2022-11-01T01:40:32.404Z,14
2022-11-01T01:41:32.390Z,16
2022-11-01T01:42:32.404Z,18
2022-11-01T01:43:32.405Z,17
2022-11-01T01:44:32.405Z,18
2022-11-01T01:45:32.391Z,17
2022-11-01T01:46:32.405Z,15
2022-11-01T01:47:32.406Z,15
2022-11-01T01:48:32.406Z,17
2022-11-01T01:49:32.392Z,17
2022-11-01T01:50:32.406Z,15
2022-11-01T01:51:32.407Z,15
2022-11-01T01:52:32.393Z,15
2022-11-01T01:53:32.393Z,16
2022-11-01T01:54:32.407Z,13
2022-11-01T01:55:32.409Z,14
2022-11-01T01:56:32.394Z,16
2022-11-01T01:57:32.408Z,16
2022-11-01T01:58:32.408Z,14
2022-11-01T01:59:32.409Z,15
2022-11-01T02:00:32.395Z,14
2022-11-01T02:01:32.409Z,14
2022-11-01T02:02:32.410Z,12
2022-11-01T02:03:32.410Z,10
2022-11-01T02:04:32.396Z,7
2022-11-01T02:05:32.411Z,9
2022-11-01T02:06:32.411Z,11
2022-11-01T02:07:32.411Z,10
2022-11-01T02:08:32.397Z,8
2022-11-01T02:09:32.476Z,11
2022-11-01T02:10:32.412Z,12
2022-11-01T02:11:32.398Z,14
2022-11-01T02:12:32.398Z,10
2022-11-01T02:13:32.412Z,12
2022-11-01T02:14:32.413Z,15
2022-11-01T02:15:32.399Z,13
2022-11-01T02:16:32.414Z,15
2022-11-01T02:17:32.414Z,14
2022-11-01T02:18:32.414Z,14
2022-11-01T02:19:32.400Z,13
2022-11-01T02:20:32.414Z,17
2022-11-01T02:21:32.415Z,18
2022-11-01T02:22:32.415Z,15
2022-11-01T02:23:32.401Z,15
2022-11-01T02:24:32.415Z,17
2022-11-01T02:25:32.416Z,19
2022-11-01T02:26:32.416Z,20
2022-11-01T02:27:32.402Z,18
2022-11-01T02:28:32.416Z,16
2022-11-01T02:29:32.417Z,19
2022-11-01T02:30:32.403Z,19
2022-11-01T02:31:32.403Z,20
2022-11-01T02:32:32.417Z,19
2022-11-01T02:33:32.418Z,21
2022-11-01T02:34:32.404Z,21
2022-11-01T02:35:32.404Z,18
2022-11-01T02:36:32.418Z,20
2022-11-01T02:37:32.420Z,17
2022-11-01T02:38:32.405Z,19
2022-11-01T02:39:32.419Z,15
2022-11-01T02:40:32.419Z,16
2022-11-01T02:41:32.420Z,18
2022-11-01T02:42:32.406Z,17
2022-11-01T02:43:32.420Z,16
2022-11-01T02:44:32.421Z,15
2022-11-01T02:45:32.421Z,15
2022-11-01T02:46:32.407Z,18
2022-11-01T02:47:32.421Z,19
2022-11-01T02:48:32.422Z,18
2022-11-01T02:49:32.422Z,18
2022-11-01T02:50:32.408Z,17
2022-11-01T02:51:32.422Z,18
2022-11-01T02:52:32.423Z,18
2022-11-01T02:53:32.423Z,20
2022-11-01T02:54:32.409Z,19
2022-11-01T02:55:32.423Z,17
2022-11-01T02:56:32.424Z,19
2022-11-01T02:57:32.410Z,16
2022-11-01T02:58:32.410Z,13
2022-11-01T02:59:32.425Z,14
2022-11-01T03:00:32.425Z,16
2022-11-01T03:01:32.411Z,13
2022-11-01T03:02:32.411Z,13
2022-11-01T03:03:32.426Z,8
2022-11-01T03:04:32.426Z,8
2022-11-01T03:05:32.412Z,11
2022-11-01T03:06:32.426Z,10
2022-11-01T03:07:32.427Z,10
2022-11-01T03:08:32.427Z,10
2022-11-01T03:09:32.413Z,11
2022-11-01T03:10:32.427Z,10
2022-11-01T03:11:32.478Z,11
2022-11-01T03:12:32.428Z,12
2022-11-01T03:13:32.414Z,13
2022-11-01T03:14:32.428Z,12
2022-11-01T03:15:32.430Z,15
2022-11-01T03:16:32.429Z,12
2022-11-01T03:17:32.415Z,10
2022-11-01T03:18:32.478Z,13
2022-11-01T03:19:32.430Z,13
2022-11-01T03:20:32.416Z,10
2022-11-01T03:21:32.416Z,11
2022-11-01T03:22:32.430Z,11
2022-11-01T03:23:32.431Z,13
2022-11-01T03:24:32.417Z,12
2022-11-01T03:25:32.431Z,13
2022-11-01T03:26:32.432Z,15
2022-11-01T03:27:32.432Z,14
2022-11-01T03:28:32.418Z,15
2022-11-01T03:29:32.432Z,14
2022-11-01T03:30:32.433Z,15
2022-11-01T03:31:32.433Z,13
2022-11-01T03:32:32.419Z,14
2022-11-01T03:33:32.433Z,16
2022-11-01T03:34:32.434Z,15
2022-11-01T03:35:32.434Z,15
2022-11-01T03:36:32.420Z,14
2022-11-01T03:37:32.434Z,14
2022-11-01T03:38:32.435Z,12
2022-11-01T03:39:32.421Z,14
2022-11-01T03:40:32.421Z,11
2022-11-01T03:41:32.435Z,11
2022-11-01T03:42:32.436Z,13
2022-11-01T03:43:32.422Z,13
2022-11-01T03:44:32.422Z,13
2022-11-01T03:45:32.436Z,13
2022-11-01T03:46:32.461Z,14
2022-11-01T03:47:32.423Z,12
2022-11-01T03:48:32.437Z,13
2022-11-01T03:49:32.437Z,12
2022-11-01T03:50:32.438Z,10
2022-11-01T03:51:32.424Z,10
2022-11-01T03:52:32.438Z,11
2022-11-01T03:53:32.439Z,12
2022-11-01T03:54:32.439Z,12
2022-11-01T03:55:32.425Z,15
2022-11-01T03:56:32.439Z,13
2022-11-01T03:57:32.440Z,14
2022-11-01T03:58:32.440Z,14
2022-11-01T03:59:32.426Z,14
2022-11-01T04:00:32.440Z,13
2022-11-01T04:01:32.441Z,13
2022-11-01T04:02:32.441Z,14
2022-11-01T04:03:32.427Z,15
2022-11-01T04:04:32.441Z,13
2022-11-01T04:05:32.442Z,11
2022-11-01T04:06:32.428Z,13
2022-11-01T04:07:32.428Z,11
2022-11-01T04:08:32.443Z,12
2022-11-01T04:09:32.443Z,11
2022-11-01T04:10:32.429Z,13
2022-11-01T04:11:32.443Z,12
2022-11-01T04:12:32.443Z,11
2022-11-01T04:13:32.444Z,11
2022-11-01T04:14:32.430Z,11
2022-11-01T04:15:32.444Z,10
2022-11-01T04:16:32.445Z,11
2022-11-01T04:17:32.445Z,11
2022-11-01T04:18:32.445Z,12
2022-11-01T04:19:32.445Z,12
2022-11-01T04:20:32.446Z,11
2022-11-01T04:21:32.446Z,13
2022-11-01T04:22:32.432Z,13
2022-11-01T04:23:32.447Z,11
2022-11-01T04:24:32.447Z,11
2022-11-01T04:25:32.433Z,13
2022-11-01T04:26:32.433Z,11
2022-11-01T04:27:32.447Z,11
2022-11-01T04:28:32.448Z,12
2022-11-01T04:29:32.434Z,11
2022-11-01T04:30:32.434Z,10
2022-11-01T04:31:32.449Z,10
2022-11-01T04:32:32.449Z,7
2022-11-01T04:33:32.435Z,9
2022-11-01T04:35:32.450Z,6
2022-11-01T04:36:32.450Z,7
2022-11-01T04:37:32.436Z,8
2022-11-01T04:38:32.450Z,8
2022-11-01T04:39:32.451Z,7
2022-11-01T04:40:32.451Z,7
2022-11-01T04:41:32.437Z,6
2022-11-01T04:42:32.451Z,6
2022-11-01T04:43:32.452Z,6
2022-11-01T04:44:32.452Z,7
2022-11-01T04:45:32.438Z,8
2022-11-01T04:46:32.452Z,8
2022-11-01T04:47:32.453Z,11
2022-11-01T04:48:32.439Z,8
2022-11-01T04:49:32.439Z,12
2022-11-01T04:50:32.454Z,11
2022-11-01T04:51:32.454Z,9
2022-11-01T04:52:32.440Z,10
2022-11-01T04:53:32.440Z,10
2022-11-01T04:54:32.455Z,9
2022-11-01T04:55:32.455Z,9
2022-11-01T04:56:32.441Z,8
2022-11-01T04:57:32.455Z,8
2022-11-01T04:58:32.456Z,9
2022-11-01T04:59:32.456Z,12
2022-11-01T05:00:32.442Z,14
2022-11-01T05:01:32.456Z,12
2022-11-01T05:02:32.457Z,13
2022-11-01T05:03:32.457Z,13
2022-11-01T05:04:32.443Z,12
2022-11-01T05:05:32.457Z,13
2022-11-01T05:06:32.458Z,13
2022-11-01T05:07:32.458Z,13
2022-11-01T05:08:32.444Z,14
2022-11-01T05:09:32.459Z,15
2022-11-01T05:10:32.459Z,14
2022-11-01T05:11:32.445Z,14
2022-11-01T05:12:32.445Z,13
2022-11-01T05:13:32.460Z,15
2022-11-01T05:14:32.461Z,13
2022-11-01T05:15:32.446Z,12
2022-11-01T05:16:32.446Z,10
2022-11-01T05:17:32.461Z,11
2022-11-01T05:18:32.461Z,12
2022-11-01T05:19:32.447Z,14
2022-11-01T05:20:32.462Z,17
2022-11-01T05:21:32.462Z,17
2022-11-01T05:22:32.462Z,14
2022-11-01T05:23:32.448Z,10
2022-11-01T05:24:32.463Z,11
2022-11-01T05:25:32.465Z,11
2022-11-01T05:26:32.463Z,9
2022-11-01T05:27:32.449Z,11
2022-11-01T05:28:32.464Z,10
2022-11-01T05:29:32.464Z,12
2022-11-01T05:30:32.464Z,10
2022-11-01T05:31:32.450Z,11
2022-11-01T05:32:32.473Z,8
2022-11-01T05:33:32.466Z,9
2022-11-01T05:34:32.451Z,9
2022-11-01T05:35:32.451Z,8
2022-11-01T05:36:32.466Z,7
2022-11-01T05:37:32.467Z,7
2022-11-01T05:38:32.452Z,7
2022-11-01T05:39:32.467Z,8
2022-11-01T05:40:32.467Z,7
2022-11-01T05:41:32.467Z,7
2022-11-01T05:42:32.453Z,8
2022-11-01T05:43:32.468Z,7
2022-11-01T05:44:32.468Z,8
2022-11-01T05:45:32.468Z,8
2022-11-01T05:46:32.454Z,9
2022-11-01T05:47:32.469Z,9
2022-11-01T05:48:32.470Z,9
2022-11-01T05:49:32.470Z,10
2022-11-01T05:50:32.456Z,11
2022-11-01T05:51:32.470Z,10
2022-11-01T05:52:35.876Z,10
2022-11-01T05:53:32.471Z,9
2022-11-01T05:54:32.457Z,12
2022-11-01T05:55:32.471Z,12
2022-11-01T05:56:32.472Z,12
2022-11-01T05:57:32.458Z,11
2022-11-01T05:58:32.458Z,11
2022-11-01T05:59:32.472Z,12
2022-11-01T06:00:32.473Z,15
2022-11-01T06:01:32.459Z,14
2022-11-01T06:02:32.459Z,12
2022-11-01T06:03:32.474Z,12
2022-11-01T06:04:32.474Z,14
2022-11-01T06:05:32.460Z,12
2022-11-01T06:06:32.475Z,13
2022-11-01T06:07:32.475Z,13
2022-11-01T06:08:32.475Z,12
2022-11-01T06:09:32.461Z,11
2022-11-01T06:10:32.476Z,11
2022-11-01T06:11:32.502Z,13
2022-11-01T06:12:32.476Z,12
2022-11-01T06:13:32.462Z,13
2022-11-01T06:14:32.477Z,13
2022-11-01T06:15:32.478Z,14
2022-11-01T06:16:32.478Z,14
2022-11-01T06:17:32.464Z,11
2022-11-01T06:18:32.478Z,11
2022-11-01T06:19:32.479Z,11
2022-11-01T06:20:32.465Z,10
2022-11-01T06:21:32.465Z,10
2022-11-01T06:22:32.479Z,12
2022-11-01T06:23:32.480Z,15
2022-11-01T06:24:32.466Z,9
2022-11-01T06:25:32.481Z,13
2022-11-01T06:26:32.481Z,13
2022-11-01T06:27:32.481Z,12
2022-11-01T06:28:32.467Z,13
2022-11-01T06:29:32.482Z,12
2022-11-01T06:30:32.482Z,13
2022-11-01T06:31:32.482Z,13
2022-11-01T06:32:32.468Z,11
2022-11-01T06:33:32.483Z,13
2022-11-01T06:34:32.484Z,9
2022-11-01T06:35:32.484Z,10
2022-11-01T06:36:32.470Z,13
2022-11-01T06:37:32.484Z,8
2022-11-01T06:38:32.485Z,7
2022-11-01T06:39:32.471Z,7
2022-11-01T06:40:32.471Z,7
2022-11-01T06:41:32.486Z,8
2022-11-01T06:42:32.486Z,9
2022-11-01T06:43:32.472Z,10
2022-11-01T06:44:32.472Z,9
2022-11-01T06:45:32.487Z,11
2022-11-01T06:46:32.535Z,13
2022-11-01T06:47:32.473Z,13
2022-11-01T06:48:32.488Z,13
2022-11-01T06:49:32.488Z,13
2022-11-01T06:50:32.488Z,14
2022-11-01T06:51:32.475Z,16
2022-11-01T06:52:32.633Z,14
2022-11-01T06:53:32.489Z,14
2022-11-01T06:54:32.490Z,11
2022-11-01T06:55:32.476Z,12
2022-11-01T06:56:32.490Z,13
2022-11-01T06:57:32.491Z,12
2022-11-01T06:58:32.491Z,11
2022-11-01T06:59:32.477Z,18
2022-11-01T07:00:32.492Z,20
2022-11-01T07:01:32.493Z,17
2022-11-01T07:02:32.492Z,16
2022-11-01T07:03:32.478Z,20
2022-11-01T07:04:32.493Z,16
2022-11-01T07:05:32.494Z,18
2022-11-01T07:06:32.479Z,16
2022-11-01T07:07:32.480Z,18
2022-11-01T07:08:32.494Z,18
2022-11-01T07:09:32.495Z,17
2022-11-01T07:10:32.481Z,12
2022-11-01T07:11:32.495Z,11
2022-11-01T07:12:32.496Z,11
2022-11-01T07:13:32.496Z,10
2022-11-01T07:14:32.482Z,12
2022-11-01T07:15:32.497Z,13
2022-11-01T07:16:32.497Z,10
2022-11-01T07:17:32.497Z,8
2022-11-01T07:18:32.484Z,8
2022-11-01T07:19:32.498Z,9
2022-11-01T07:20:32.499Z,8
2022-11-01T07:21:32.499Z,8
2022-11-01T07:22:32.485Z,9
2022-11-01T07:23:32.500Z,10
2022-11-01T07:24:32.500Z,10
2022-11-01T07:25:32.486Z,10
2022-11-01T07:26:32.486Z,11
2022-11-01T07:27:32.501Z,12
2022-11-01T07:28:32.502Z,11
2022-11-01T07:29:32.487Z,10
2022-11-01T07:30:32.551Z,10
2022-11-01T07:31:32.502Z,11
2022-11-01T07:32:32.503Z,8
2022-11-01T07:33:32.489Z,8
2022-11-01T07:34:32.503Z,6
2022-11-01T07:35:32.504Z,7
2022-11-01T07:36:32.504Z,7
2022-11-01T07:37:32.490Z,8
2022-11-01T07:38:32.505Z,5
2022-11-01T07:39:32.507Z,7
2022-11-01T07:40:32.505Z,6
2022-11-01T07:41:32.492Z,6
2022-11-01T07:42:32.506Z,9
2022-11-01T07:43:32.507Z,11
2022-11-01T07:44:32.507Z,11
2022-11-01T07:45:32.493Z,14
2022-11-01T07:46:32.516Z,16
2022-11-01T07:47:32.509Z,15
2022-11-01T07:48:32.494Z,17
2022-11-01T07:49:32.494Z,15
2022-11-01T07:50:32.509Z,12
2022-11-01T07:51:32.510Z,12
2022-11-01T07:52:38.614Z,17
2022-11-01T07:53:32.496Z,18
2022-11-01T07:54:32.510Z,13
2022-11-01T07:55:32.511Z,14
2022-11-01T07:56:32.497Z,13
2022-11-01T07:57:32.511Z,14
2022-11-01T07:58:32.512Z,13
2022-11-01T07:59:32.512Z,16
2022-11-01T08:00:32.498Z,20
2022-11-01T08:01:32.513Z,18
2022-11-01T08:02:32.539Z,21
2022-11-01T08:03:32.514Z,25
2022-11-01T08:04:32.500Z,22
2022-11-01T08:05:32.514Z,21
2022-11-01T08:06:32.515Z,23
2022-11-01T08:07:32.515Z,17
2022-11-01T08:08:32.501Z,17
2022-11-01T08:09:32.564Z,18
2022-11-01T08:10:32.517Z,15
2022-11-01T08:11:32.502Z,17
2022-11-01T08:12:32.503Z,17
2022-11-01T08:13:32.517Z,15
2022-11-01T08:14:32.518Z,12
2022-11-01T08:15:32.504Z,11
2022-11-01T08:16:32.519Z,11
2022-11-01T08:17:32.519Z,16
2022-11-01T08:18:32.519Z,11
2022-11-01T08:19:32.505Z,10
2022-11-01T08:20:32.520Z,11
2022-11-01T08:21:32.520Z,20
2022-11-01T08:22:32.521Z,13
2022-11-01T08:23:32.521Z,15
2022-11-01T08:24:32.522Z,11
2022-11-01T08:25:32.522Z,12
2022-11-01T08:26:32.522Z,13
2022-11-01T08:27:32.508Z,15
2022-11-01T08:28:32.523Z,13
2022-11-01T08:29:32.524Z,14
2022-11-01T08:30:32.509Z,13
2022-11-01T08:31:32.510Z,15
2022-11-01T08:32:32.525Z,15
2022-11-01T08:33:32.526Z,16
2022-11-01T08:34:32.511Z,17
2022-11-01T08:35:32.511Z,16
2022-11-01T08:36:32.526Z,16
2022-11-01T08:37:32.527Z,20
2022-11-01T08:38:32.513Z,15
2022-11-01T08:39:32.528Z,15
2022-11-01T08:40:32.528Z,18
2022-11-01T08:41:32.528Z,17
2022-11-01T08:42:32.514Z,16
2022-11-01T08:43:32.529Z,21
2022-11-01T08:44:32.571Z,18
2022-11-01T08:45:32.530Z,19
2022-11-01T08:46:32.516Z,16
2022-11-01T08:47:32.531Z,18
2022-11-01T08:48:32.532Z,19
2022-11-01T08:49:32.531Z,19
2022-11-01T08:50:32.517Z,24
2022-11-01T08:51:32.572Z,22
2022-11-01T08:52:36.402Z,21
2022-11-01T08:53:32.519Z,21
2022-11-01T08:54:32.519Z,20
2022-11-01T08:55:32.534Z,23
2022-11-01T08:56:32.535Z,24
2022-11-01T08:57:32.520Z,26
2022-11-01T08:58:32.521Z,24
2022-11-01T08:59:32.535Z,26
2022-11-01T09:00:32.544Z,29
2022-11-01T09:01:32.522Z,23
2022-11-01T09:02:32.537Z,27
2022-11-01T09:03:32.537Z,31
2022-11-01T09:04:32.537Z,27
2022-11-01T09:05:32.523Z,30
2022-11-01T09:06:32.538Z,35
2022-11-01T09:07:32.564Z,29
2022-11-01T09:08:32.539Z,35
2022-11-01T09:09:32.525Z,43
2022-11-01T09:10:32.540Z,47
2022-11-01T09:11:32.541Z,40
2022-11-01T09:12:32.540Z,40
2022-11-01T09:13:32.527Z,44
2022-11-01T09:14:32.541Z,50
2022-11-01T09:15:32.542Z,54
2022-11-01T09:16:32.528Z,48
2022-11-01T09:17:32.528Z,41
2022-11-01T09:18:32.543Z,33
2022-11-01T09:19:32.544Z,27
2022-11-01T09:20:32.529Z,32
2022-11-01T09:21:32.530Z,30
2022-11-01T09:22:32.544Z,35
2022-11-01T09:23:32.545Z,33
2022-11-01T09:24:32.531Z,40
2022-11-01T09:25:32.546Z,30
2022-11-01T09:26:32.546Z,30
2022-11-01T09:27:32.546Z,29
2022-11-01T09:28:32.533Z,24
2022-11-01T09:29:32.547Z,22
2022-11-01T09:30:32.598Z,32
2022-11-01T09:31:32.548Z,27
2022-11-01T09:32:32.534Z,25
2022-11-01T09:33:32.549Z,31
2022-11-01T09:34:32.550Z,29
2022-11-01T09:35:32.550Z,37
2022-11-01T09:36:32.536Z,41
2022-11-01T09:37:32.551Z,44
2022-11-01T09:38:32.551Z,38
2022-11-01T09:39:32.537Z,34
2022-11-01T09:40:32.537Z,26
2022-11-01T09:41:32.552Z,30
2022-11-01T09:42:32.553Z,29
2022-11-01T09:43:32.538Z,35
2022-11-01T09:44:32.553Z,37
2022-11-01T09:45:32.554Z,42
2022-11-01T09:46:32.554Z,31
2022-11-01T09:47:32.540Z,31
2022-11-01T09:48:32.555Z,37
2022-11-01T09:49:32.555Z,32
2022-11-01T09:50:32.556Z,31
2022-11-01T09:51:32.542Z,33
2022-11-01T09:52:32.556Z,32
2022-11-01T09:53:32.559Z,28
2022-11-01T09:54:32.557Z,30
2022-11-01T09:55:32.543Z,30
2022-11-01T09:56:32.558Z,34
2022-11-01T09:57:32.559Z,44
2022-11-01T09:58:32.559Z,39
2022-11-01T09:59:32.545Z,37
2022-11-01T10:00:32.559Z,41
2022-11-01T10:01:32.561Z,45
2022-11-01T10:02:32.546Z,40
2022-11-01T10:03:32.546Z,41
2022-11-01T10:04:32.561Z,39
2022-11-01T10:05:32.562Z,35
2022-11-01T10:06:32.547Z,36
2022-11-01T10:07:32.587Z,41
2022-11-01T10:08:32.563Z,36
2022-11-01T10:09:32.563Z,33
2022-11-01T10:10:32.549Z,32
2022-11-01T10:11:32.564Z,33
2022-11-01T10:12:32.564Z,31
2022-11-01T10:13:32.565Z,33
2022-11-01T10:14:32.551Z,37
2022-11-01T10:15:32.565Z,43
2022-11-01T10:16:32.567Z,38
2022-11-01T10:17:32.566Z,37
2022-11-01T10:18:32.552Z,44
2022-11-01T10:19:32.567Z,41
2022-11-01T10:20:32.568Z,39
2022-11-01T10:21:32.568Z,36
2022-11-01T10:22:32.554Z,32
2022-11-01T10:23:32.569Z,40
2022-11-01T10:24:32.570Z,31
2022-11-01T10:26:32.555Z,38
2022-11-01T10:27:32.570Z,45
2022-11-01T10:28:32.571Z,43
2022-11-01T10:29:32.557Z,46
2022-11-01T10:30:32.571Z,59
2022-11-01T10:31:32.572Z,62
2022-11-01T10:32:32.572Z,56
2022-11-01T10:33:32.558Z,54
2022-11-01T10:34:32.573Z,52
2022-11-01T10:35:32.573Z,45
2022-11-01T10:36:32.573Z,46
2022-11-01T10:37:32.560Z,40
2022-11-01T10:38:32.574Z,42
2022-11-01T10:39:32.576Z,32
2022-11-01T10:40:32.575Z,31
2022-11-01T10:41:32.561Z,27
2022-11-01T10:42:32.640Z,27
2022-11-01T10:43:32.577Z,34
2022-11-01T10:44:32.562Z,33
2022-11-01T10:45:32.563Z,42
2022-11-01T10:46:32.577Z,39
2022-11-01T10:47:32.578Z,33
2022-11-01T10:48:32.564Z,31
2022-11-01T10:49:32.564Z,38
2022-11-01T10:50:32.579Z,36
2022-11-01T10:51:32.579Z,29
2022-11-01T10:52:32.566Z,27
2022-11-01T10:53:32.580Z,29
2022-11-01T10:54:32.581Z,24
2022-11-01T10:55:32.581Z,29
2022-11-01T10:56:32.567Z,29
2022-11-01T10:57:32.582Z,31
2022-11-01T10:58:32.583Z,33
2022-11-01T10:59:32.583Z,31
2022-11-01T11:00:32.569Z,39
2022-11-01T11:01:32.584Z,41
2022-11-01T11:02:32.585Z,38
2022-11-01T11:03:32.584Z,40
2022-11-01T11:04:32.570Z,40
2022-11-01T11:05:32.585Z,35
2022-11-01T11:06:32.586Z,44
2022-11-01T11:07:32.572Z,41
2022-11-01T11:08:32.572Z,36
2022-11-01T11:09:32.587Z,28
2022-11-01T11:10:32.588Z,24
2022-11-01T11:11:32.573Z,32
2022-11-01T11:12:32.574Z,32
2022-11-01T11:13:32.588Z,44
2022-11-01T11:15:32.575Z,48
2022-11-01T11:16:32.590Z,54
2022-11-01T11:17:32.590Z,49
2022-11-01T11:18:32.590Z,48
2022-11-01T11:19:32.577Z,43
2022-11-01T11:20:32.591Z,45
2022-11-01T11:21:32.592Z,41
2022-11-01T11:22:32.592Z,36
2022-11-01T11:23:32.578Z,30
2022-11-01T11:24:32.593Z,26
2022-11-01T11:25:32.594Z,28
2022-11-01T11:26:32.594Z,28
2022-11-01T11:27:32.580Z,27
2022-11-01T11:28:32.595Z,32
2022-11-01T11:29:32.596Z,33
2022-11-01T11:30:32.581Z,37
2022-11-01T11:31:32.582Z,38
2022-11-01T11:32:32.597Z,36
2022-11-01T11:33:32.597Z,37
2022-11-01T11:34:32.583Z,36
2022-11-01T11:35:32.583Z,37
2022-11-01T11:36:32.598Z,34
2022-11-01T11:37:32.647Z,31
2022-11-01T11:38:32.585Z,36
2022-11-01T11:39:32.600Z,36
2022-11-01T11:40:32.600Z,37
2022-11-01T11:41:32.600Z,40
2022-11-01T11:42:32.586Z,46
2022-11-01T11:43:32.601Z,44
2022-11-01T11:44:32.667Z,46
2022-11-01T11:45:32.602Z,43
2022-11-01T11:46:32.588Z,38
2022-11-01T11:47:32.603Z,40
2022-11-01T11:48:32.604Z,39
2022-11-01T11:49:32.603Z,39
2022-11-01T11:50:32.590Z,46
2022-11-01T11:51:32.653Z,51
2022-11-01T11:52:32.605Z,47
2022-11-01T11:53:32.591Z,42
2022-11-01T11:54:32.591Z,47
2022-11-01T11:55:32.606Z,38
2022-11-01T11:56:32.607Z,48
2022-11-01T11:57:32.593Z,52
2022-11-01T11:58:32.607Z,51
2022-11-01T11:59:32.608Z,52
2022-11-01T12:00:32.608Z,59
2022-11-01T12:02:32.609Z,48
2022-11-01T12:03:32.609Z,40
2022-11-01T12:04:32.610Z,42
2022-11-01T12:05:32.610Z,40
2022-11-01T12:06:32.611Z,41
2022-11-01T12:07:32.612Z,37
2022-11-01T12:08:32.612Z,43
2022-11-01T12:09:32.598Z,45
2022-11-01T12:10:32.613Z,44
2022-11-01T12:11:32.614Z,45
2022-11-01T12:12:32.613Z,41
2022-11-01T12:13:32.599Z,50
2022-11-01T12:14:32.614Z,50
2022-11-01T12:15:32.615Z,47
2022-11-01T12:17:32.601Z,50
2022-11-01T12:18:32.615Z,49
2022-11-01T12:19:32.616Z,48
2022-11-01T12:20:32.602Z,47
2022-11-01T12:21:32.617Z,44
2022-11-01T12:22:32.617Z,43
2022-11-01T12:23:32.618Z,44
2022-11-01T12:24:32.604Z,45
2022-11-01T12:25:32.619Z,48
2022-11-01T12:26:32.619Z,53
2022-11-01T12:27:32.619Z,60
2022-11-01T12:28:32.605Z,46
2022-11-01T12:29:32.620Z,46
2022-11-01T12:30:32.621Z,60
2022-11-01T12:31:32.621Z,57
2022-11-01T12:32:32.607Z,56
2022-11-01T12:34:32.623Z,58
2022-11-01T12:39:32.610Z,48
2022-11-01T12:40:32.611Z,50
2022-11-01T12:41:32.625Z,54
2022-11-01T12:42:32.626Z,47
2022-11-01T12:43:32.626Z,56
2022-11-01T12:44:32.612Z,56
2022-11-01T12:45:32.627Z,59
2022-11-01T12:46:32.627Z,47
2022-11-01T12:47:32.628Z,50
2022-11-01T12:48:32.614Z,52
2022-11-01T12:49:32.629Z,56
2022-11-01T12:50:32.630Z,55
2022-11-01T12:51:32.629Z,53
2022-11-01T12:52:32.616Z,51
2022-11-01T12:53:32.630Z,52
2022-11-01T12:54:32.631Z,50
2022-11-01T12:55:32.631Z,54
2022-11-01T12:56:32.617Z,57
2022-11-01T12:57:32.632Z,49
2022-11-01T12:58:32.633Z,51
2022-11-01T12:59:32.619Z,53
2022-11-01T13:00:32.619Z,51
2022-11-01T13:01:32.634Z,54
2022-11-01T13:02:32.642Z,57
2022-11-01T13:03:32.620Z,51
2022-11-01T13:04:32.635Z,50
2022-11-01T13:05:32.635Z,46
2022-11-01T13:06:32.636Z,50
2022-11-01T13:07:32.622Z,47
2022-11-01T13:08:32.637Z,43
2022-11-01T13:09:32.663Z,43
2022-11-01T13:10:32.637Z,51
2022-11-01T13:11:32.624Z,47
2022-11-01T13:12:32.638Z,47
2022-11-01T13:13:32.640Z,43
2022-11-01T13:14:32.639Z,45
2022-11-01T13:15:32.625Z,53
2022-11-01T13:16:32.640Z,53
2022-11-01T13:20:32.642Z,60
2022-11-01T13:21:32.643Z,57
2022-11-01T13:22:32.642Z,55
2022-11-01T13:23:32.629Z,60
2022-11-01T13:24:32.644Z,57
2022-11-01T13:25:32.644Z,53
2022-11-01T13:26:32.644Z,54
2022-11-01T13:27:32.630Z,56
2022-11-01T13:28:32.645Z,52
2022-11-01T13:29:32.646Z,56
2022-11-01T13:30:32.631Z,65
2022-11-01T13:31:32.632Z,68
2022-11-01T13:32:32.647Z,60
2022-11-01T13:33:32.648Z,62
2022-11-01T13:34:32.633Z,66
2022-11-01T13:35:32.648Z,64
2022-11-01T13:36:32.648Z,56
2022-11-01T13:37:32.649Z,56
2022-11-01T13:38:32.635Z,51
2022-11-01T13:39:32.650Z,58
2022-11-01T13:40:32.650Z,52
2022-11-01T13:41:32.650Z,52
2022-11-01T13:42:32.636Z,52
2022-11-01T13:43:32.651Z,53
2022-11-01T13:44:32.652Z,60
2022-11-01T13:45:32.652Z,60
2022-11-01T13:46:32.638Z,56
2022-11-01T13:47:32.653Z,60
2022-11-01T13:48:32.654Z,50
2022-11-01T13:49:32.639Z,49
2022-11-01T13:50:32.640Z,47
2022-11-01T13:51:32.655Z,46
2022-11-01T13:52:32.655Z,44
2022-11-01T13:53:32.641Z,48
2022-11-01T13:54:32.641Z,43
2022-11-01T13:55:32.656Z,50
2022-11-01T13:56:32.656Z,52
2022-11-01T13:57:32.643Z,63
2022-11-01T13:58:32.657Z,48
2022-11-01T13:59:32.658Z,43
2022-11-01T14:00:32.658Z,49
2022-11-01T14:01:32.644Z,56
2022-11-01T14:02:32.659Z,58
2022-11-01T14:03:32.685Z,65
2022-11-01T14:04:32.660Z,54
2022-11-01T14:05:32.646Z,50
2022-11-01T14:06:32.660Z,48
2022-11-01T14:07:32.661Z,51
2022-11-01T14:08:32.661Z,49
2022-11-01T14:09:32.647Z,56
2022-11-01T14:10:32.702Z,45
2022-11-01T14:11:32.663Z,50
2022-11-01T14:12:32.649Z,41
2022-11-01T14:13:32.649Z,57
2022-11-01T14:14:32.664Z,56
2022-11-01T14:15:32.665Z,60
2022-11-01T14:16:32.650Z,60
2022-11-01T14:17:32.651Z,54
2022-11-01T14:18:32.665Z,62
2022-11-01T14:19:32.666Z,57
2022-11-01T14:20:32.652Z,61
2022-11-01T14:21:32.667Z,58
2022-11-01T14:22:32.667Z,57
2022-11-01T14:23:32.667Z,53
2022-11-01T14:24:32.653Z,50
2022-11-01T14:25:32.668Z,53
2022-11-01T14:26:32.671Z,52
2022-11-01T14:27:32.669Z,57
2022-11-01T14:28:32.655Z,62
2022-11-01T14:29:32.670Z,63
2022-11-01T14:30:32.671Z,64
2022-11-01T14:31:32.670Z,67